Sawyer, MN

12:59 PM CDT on October 20, 2014 (GMT -0500)
Cloquet Carlton County | Change Station
CLOSE
Current Station
Airport
Location: Cloquet,
Elevation: 1280 ft
Nearby Weather Stations

Elev 1280 ft 46.70 °N, 92.50 °W | Updated 2 minutes ago

Overcast
Overcast
48 °F
Feels Like 48 °F
N
8
Wind Variable Wind from WNW

Today
High -- | Low -- °F
--% Chance of Precip.
Yesterday
High -- | Low -- °F
Precip. -- in
7:35 AM 6:14 PM
Waning Crescent, 10% visible
Pressure 30.00 in
Visibility 10.0 miles
Clouds Scattered Clouds 1900 ft
Overcast 2900 ft
Dew Point 39 °F
Humidity 71%
Rainfall 0.00 in
Snow Depth Not available.
UV 1 out of 12
Pollen 1.30 out of 12
Air Quality Not available.
Flu Activity Sporadic
METAR KCOQ 201757Z AUTO 30007KT 10SM SCT019 OVC029 09/04 A3000 RMK AO2

More Conditions Fewer Conditions

Pressure 30.00 in
Visibility 10.0 miles
Clouds Scattered Clouds 1900 ft
Overcast 2900 ft
Dew Point 39 °F
Humidity 71%
Rainfall 0.00 in
Snow Depth Not available.
UV 1 out of 12
Pollen 1.30 out of 12
Air Quality Not available.
Flu Activity Sporadic
METAR KCOQ 201757Z AUTO 30007KT 10SM SCT019 OVC029 09/04 A3000 RMK AO2

More Conditions Fewer Conditions

10-Day Weather Forecast

Almanac

Astronomy

Oct. 20, 2014 Rise Set
Actual Time 7:35 AM CDT 6:14 PM CDT
Civil Twilight 7:04 AM CDT 6:45 PM CDT
Nautical Twilight 6:29 AM CDT 7:20 PM CDT
Astronomical Twilight 5:54 AM CDT 7:55 PM CDT
Moon 4:12 AM CDT 4:47 PM CDT
Length of Visible Light 11h 40m
Length of Day
10h 39m
Waning Crescent, 10% of the Moon is Illuminated
Today
Waning Crescent
Oct 23
New
Oct 30
First Quarter
Nov 6
Full
Nov 14
Last Quarter

Today's Extremes

State Highs State Lows

Community

WunderPhotos

Upload Photos

1,763,446 photos uploaded!

WunderBlogs® & News

Nearby

Snow Depth

Station Depth Elevation
No new snow has been reported.

Earthquake Activity

City Distance Mag. Time & Date
No recent earthquake activity has been reported nearby.
Minimum magnitude displayed is 2.5.

Coastal Water Temperatures

Place Temperature
Duluth, MN 55.0 °F

Nearby Weather Stations